sensor_id;sensor_type;location;lat;lon;timestamp;P1;durP1;ratioP1;P2;durP2;ratioP2
62149;SDS011;48134;53.586;10.610;2024-03-08T00:00:52;28.52;;;13.82;;
62149;SDS011;48134;53.586;10.610;2024-03-08T00:03:26;32.17;;;14.55;;
62149;SDS011;48134;53.586;10.610;2024-03-08T00:06:01;29.08;;;14.63;;
62149;SDS011;48134;53.586;10.610;2024-03-08T00:08:32;28.60;;;14.15;;
62149;SDS011;48134;53.586;10.610;2024-03-08T00:11:06;27.77;;;14.15;;
62149;SDS011;48134;53.586;10.610;2024-03-08T00:13:39;32.28;;;15.15;;
62149;SDS011;48134;53.586;10.610;2024-03-08T00:16:13;31.20;;;14.88;;
62149;SDS011;48134;53.586;10.610;2024-03-08T00:18:41;30.08;;;14.13;;
62149;SDS011;48134;53.586;10.610;2024-03-08T00:21:15;28.58;;;13.93;;
62149;SDS011;48134;53.586;10.610;2024-03-08T00:23:49;27.38;;;13.90;;
62149;SDS011;48134;53.586;10.610;2024-03-08T00:26:18;30.15;;;13.88;;
62149;SDS011;48134;53.586;10.610;2024-03-08T00:28:46;28.52;;;13.73;;
62149;SDS011;48134;53.586;10.610;2024-03-08T00:31:15;28.27;;;13.30;;
62149;SDS011;48134;53.586;10.610;2024-03-08T00:33:43;25.98;;;13.65;;
62149;SDS011;48134;53.586;10.610;2024-03-08T00:36:12;28.52;;;14.00;;
62149;SDS011;48134;53.586;10.610;2024-03-08T00:38:45;29.30;;;14.07;;
62149;SDS011;48134;53.586;10.610;2024-03-08T00:41:20;30.23;;;13.48;;
62149;SDS011;48134;53.586;10.610;2024-03-08T00:43:53;28.85;;;14.55;;
62149;SDS011;48134;53.586;10.610;2024-03-08T00:46:26;28.92;;;14.85;;
62149;SDS011;48134;53.586;10.610;2024-03-08T00:48:55;29.40;;;14.15;;
62149;SDS011;48134;53.586;10.610;2024-03-08T00:51:28;30.50;;;14.13;;
62149;SDS011;48134;53.586;10.610;2024-03-08T00:53:57;27.42;;;13.98;;
62149;SDS011;48134;53.586;10.610;2024-03-08T00:56:31;30.77;;;13.82;;
62149;SDS011;48134;53.586;10.610;2024-03-08T00:59:00;32.28;;;15.07;;
62149;SDS011;48134;53.586;10.610;2024-03-08T01:01:29;30.45;;;14.50;;
62149;SDS011;48134;53.586;10.610;2024-03-08T01:04:02;29.60;;;14.55;;
62149;SDS011;48134;53.586;10.610;2024-03-08T01:06:35;26.77;;;14.17;;
62149;SDS011;48134;53.586;10.610;2024-03-08T01:09:09;33.03;;;15.02;;
62149;SDS011;48134;53.586;10.610;2024-03-08T01:11:40;26.73;;;13.77;;
62149;SDS011;48134;53.586;10.610;2024-03-08T01:14:14;28.88;;;13.27;;
62149;SDS011;48134;53.586;10.610;2024-03-08T01:16:47;30.85;;;13.80;;
62149;SDS011;48134;53.586;10.610;2024-03-08T01:19:21;29.52;;;13.95;;
62149;SDS011;48134;53.586;10.610;2024-03-08T01:21:50;26.45;;;13.60;;
62149;SDS011;48134;53.586;10.610;2024-03-08T01:24:24;28.90;;;13.80;;
62149;SDS011;48134;53.586;10.610;2024-03-08T01:26:53;29.08;;;13.65;;
62149;SDS011;48134;53.586;10.610;2024-03-08T01:29:27;27.13;;;13.25;;
62149;SDS011;48134;53.586;10.610;2024-03-08T01:31:56;31.35;;;14.07;;
62149;SDS011;48134;53.586;10.610;2024-03-08T01:34:29;29.63;;;13.93;;
62149;SDS011;48134;53.586;10.610;2024-03-08T01:37:03;28.50;;;14.37;;
62149;SDS011;48134;53.586;10.610;2024-03-08T01:39:31;26.73;;;13.32;;
62149;SDS011;48134;53.586;10.610;2024-03-08T01:42:06;27.75;;;13.63;;
62149;SDS011;48134;53.586;10.610;2024-03-08T01:44:40;29.50;;;14.30;;
62149;SDS011;48134;53.586;10.610;2024-03-08T01:47:15;28.40;;;14.10;;
62149;SDS011;48134;53.586;10.610;2024-03-08T01:49:48;32.17;;;14.20;;
62149;SDS011;48134;53.586;10.610;2024-03-08T01:52:22;30.50;;;14.10;;
62149;SDS011;48134;53.586;10.610;2024-03-08T01:54:57;30.55;;;15.35;;
62149;SDS011;48134;53.586;10.610;2024-03-08T01:57:33;32.13;;;15.60;;
62149;SDS011;48134;53.586;10.610;2024-03-08T02:00:04;29.20;;;13.65;;
62149;SDS011;48134;53.586;10.610;2024-03-08T02:02:42;31.33;;;13.95;;
62149;SDS011;48134;53.586;10.610;2024-03-08T02:05:16;30.15;;;14.20;;
62149;SDS011;48134;53.586;10.610;2024-03-08T02:07:44;31.58;;;14.85;;
62149;SDS011;48134;53.586;10.610;2024-03-08T02:10:18;30.80;;;14.50;;
62149;SDS011;48134;53.586;10.610;2024-03-08T02:12:53;32.07;;;14.27;;
62149;SDS011;48134;53.586;10.610;2024-03-08T02:15:21;30.77;;;14.97;;
62149;SDS011;48134;53.586;10.610;2024-03-08T02:17:49;33.20;;;14.25;;
62149;SDS011;48134;53.586;10.610;2024-03-08T02:20:18;34.33;;;14.90;;
62149;SDS011;48134;53.586;10.610;2024-03-08T02:22:53;31.88;;;14.25;;
62149;SDS011;48134;53.586;10.610;2024-03-08T02:25:21;32.35;;;14.20;;
62149;SDS011;48134;53.586;10.610;2024-03-08T02:27:55;30.13;;;14.13;;
62149;SDS011;48134;53.586;10.610;2024-03-08T02:30:28;32.90;;;14.90;;
62149;SDS011;48134;53.586;10.610;2024-03-08T02:33:01;31.00;;;14.52;;
62149;SDS011;48134;53.586;10.610;2024-03-08T02:35:30;28.00;;;14.10;;
62149;SDS011;48134;53.586;10.610;2024-03-08T02:38:05;31.77;;;14.23;;
62149;SDS011;48134;53.586;10.610;2024-03-08T02:40:39;32.22;;;14.38;;
62149;SDS011;48134;53.586;10.610;2024-03-08T02:43:12;29.35;;;13.80;;
62149;SDS011;48134;53.586;10.610;2024-03-08T02:45:42;30.60;;;14.18;;
62149;SDS011;48134;53.586;10.610;2024-03-08T02:48:15;28.33;;;13.52;;
62149;SDS011;48134;53.586;10.610;2024-03-08T02:50:49;32.08;;;14.27;;
62149;SDS011;48134;53.586;10.610;2024-03-08T02:53:20;32.53;;;14.30;;
62149;SDS011;48134;53.586;10.610;2024-03-08T02:55:48;30.65;;;14.00;;
62149;SDS011;48134;53.586;10.610;2024-03-08T02:58:22;30.08;;;13.85;;
62149;SDS011;48134;53.586;10.610;2024-03-08T03:00:55;32.60;;;14.00;;
62149;SDS011;48134;53.586;10.610;2024-03-08T03:03:24;31.93;;;14.60;;
62149;SDS011;48134;53.586;10.610;2024-03-08T03:05:58;29.63;;;14.05;;
62149;SDS011;48134;53.586;10.610;2024-03-08T03:08:34;31.52;;;14.07;;
62149;SDS011;48134;53.586;10.610;2024-03-08T03:11:07;30.70;;;13.75;;
62149;SDS011;48134;53.586;10.610;2024-03-08T03:13:40;33.10;;;14.60;;
62149;SDS011;48134;53.586;10.610;2024-03-08T03:16:16;31.33;;;14.55;;
62149;SDS011;48134;53.586;10.610;2024-03-08T03:18:46;32.40;;;14.75;;
62149;SDS011;48134;53.586;10.610;2024-03-08T03:21:20;31.25;;;14.18;;
62149;SDS011;48134;53.586;10.610;2024-03-08T03:23:54;31.67;;;14.40;;
62149;SDS011;48134;53.586;10.610;2024-03-08T03:26:28;30.10;;;13.93;;
62149;SDS011;48134;53.586;10.610;2024-03-08T03:29:02;32.60;;;14.70;;
62149;SDS011;48134;53.586;10.610;2024-03-08T03:31:32;35.90;;;15.07;;
62149;SDS011;48134;53.586;10.610;2024-03-08T03:34:06;34.83;;;14.52;;
62149;SDS011;48134;53.586;10.610;2024-03-08T03:36:40;33.40;;;14.35;;
62149;SDS011;48134;53.586;10.610;2024-03-08T03:39:18;32.60;;;13.82;;
62149;SDS011;48134;53.586;10.610;2024-03-08T03:41:53;32.72;;;14.10;;
62149;SDS011;48134;53.586;10.610;2024-03-08T03:44:26;31.35;;;13.65;;
62149;SDS011;48134;53.586;10.610;2024-03-08T03:46:54;33.43;;;14.90;;
62149;SDS011;48134;53.586;10.610;2024-03-08T03:49:28;30.88;;;13.88;;
62149;SDS011;48134;53.586;10.610;2024-03-08T03:51:56;31.65;;;14.02;;
62149;SDS011;48134;53.586;10.610;2024-03-08T03:54:31;30.80;;;14.48;;
62149;SDS011;48134;53.586;10.610;2024-03-08T03:57:05;32.22;;;13.95;;
62149;SDS011;48134;53.586;10.610;2024-03-08T03:59:34;30.35;;;14.05;;
62149;SDS011;48134;53.586;10.610;2024-03-08T04:02:08;30.75;;;13.65;;
62149;SDS011;48134;53.586;10.610;2024-03-08T04:04:41;29.67;;;13.70;;
62149;SDS011;48134;53.586;10.610;2024-03-08T04:07:15;30.45;;;13.77;;
62149;SDS011;48134;53.586;10.610;2024-03-08T04:09:50;34.67;;;13.90;;
62149;SDS011;48134;53.586;10.610;2024-03-08T04:12:19;32.40;;;14.55;;
62149;SDS011;48134;53.586;10.610;2024-03-08T04:14:52;34.08;;;15.10;;
62149;SDS011;48134;53.586;10.610;2024-03-08T04:17:22;31.75;;;14.15;;
62149;SDS011;48134;53.586;10.610;2024-03-08T04:19:51;29.33;;;14.15;;
62149;SDS011;48134;53.586;10.610;2024-03-08T04:22:24;34.38;;;14.57;;
62149;SDS011;48134;53.586;10.610;2024-03-08T04:24:56;34.15;;;14.45;;
62149;SDS011;48134;53.586;10.610;2024-03-08T04:27:29;32.42;;;14.32;;
62149;SDS011;48134;53.586;10.610;2024-03-08T04:30:05;29.20;;;14.20;;
62149;SDS011;48134;53.586;10.610;2024-03-08T04:32:39;31.63;;;14.18;;
62149;SDS011;48134;53.586;10.610;2024-03-08T04:35:08;32.35;;;13.93;;
62149;SDS011;48134;53.586;10.610;2024-03-08T04:37:41;29.98;;;14.15;;
62149;SDS011;48134;53.586;10.610;2024-03-08T04:40:16;32.92;;;14.55;;
62149;SDS011;48134;53.586;10.610;2024-03-08T04:42:50;32.55;;;14.75;;
62149;SDS011;48134;53.586;10.610;2024-03-08T04:45:25;32.93;;;14.10;;
62149;SDS011;48134;53.586;10.610;2024-03-08T04:47:54;31.50;;;14.13;;
62149;SDS011;48134;53.586;10.610;2024-03-08T04:50:22;35.15;;;15.30;;
62149;SDS011;48134;53.586;10.610;2024-03-08T04:52:56;33.65;;;14.65;;
62149;SDS011;48134;53.586;10.610;2024-03-08T04:55:30;32.90;;;14.43;;
62149;SDS011;48134;53.586;10.610;2024-03-08T04:57:59;30.92;;;14.88;;
62149;SDS011;48134;53.586;10.610;2024-03-08T05:00:27;29.58;;;13.88;;
62149;SDS011;48134;53.586;10.610;2024-03-08T05:03:00;33.58;;;14.02;;
62149;SDS011;48134;53.586;10.610;2024-03-08T05:05:29;32.28;;;14.30;;
62149;SDS011;48134;53.586;10.610;2024-03-08T05:07:57;29.60;;;13.82;;
62149;SDS011;48134;53.586;10.610;2024-03-08T05:10:32;31.63;;;13.55;;
62149;SDS011;48134;53.586;10.610;2024-03-08T05:13:00;30.05;;;14.27;;
62149;SDS011;48134;53.586;10.610;2024-03-08T05:15:29;31.83;;;14.68;;
62149;SDS011;48134;53.586;10.610;2024-03-08T05:18:06;32.80;;;14.55;;
62149;SDS011;48134;53.586;10.610;2024-03-08T05:20:40;38.25;;;16.80;;
62149;SDS011;48134;53.586;10.610;2024-03-08T05:23:08;34.93;;;16.43;;
62149;SDS011;48134;53.586;10.610;2024-03-08T05:25:43;32.42;;;15.40;;
62149;SDS011;48134;53.586;10.610;2024-03-08T05:28:11;36.83;;;16.23;;
62149;SDS011;48134;53.586;10.610;2024-03-08T05:30:40;38.67;;;16.88;;
62149;SDS011;48134;53.586;10.610;2024-03-08T05:33:13;34.88;;;15.60;;
62149;SDS011;48134;53.586;10.610;2024-03-08T05:35:41;37.87;;;17.40;;
62149;SDS011;48134;53.586;10.610;2024-03-08T05:38:10;37.10;;;16.60;;
62149;SDS011;48134;53.586;10.610;2024-03-08T05:40:39;49.22;;;17.67;;
62149;SDS011;48134;53.586;10.610;2024-03-08T05:43:16;44.90;;;17.98;;
62149;SDS011;48134;53.586;10.610;2024-03-08T05:45:51;41.05;;;18.48;;
62149;SDS011;48134;53.586;10.610;2024-03-08T05:48:24;44.55;;;18.33;;
62149;SDS011;48134;53.586;10.610;2024-03-08T05:50:53;39.58;;;17.65;;
62149;SDS011;48134;53.586;10.610;2024-03-08T05:53:21;57.30;;;18.65;;
62149;SDS011;48134;53.586;10.610;2024-03-08T05:55:54;40.85;;;18.20;;
62149;SDS011;48134;53.586;10.610;2024-03-08T05:58:29;43.75;;;18.92;;
62149;SDS011;48134;53.586;10.610;2024-03-08T06:01:03;43.38;;;18.52;;
62149;SDS011;48134;53.586;10.610;2024-03-08T06:03:34;42.38;;;18.90;;
62149;SDS011;48134;53.586;10.610;2024-03-08T06:06:07;44.73;;;19.07;;
62149;SDS011;48134;53.586;10.610;2024-03-08T06:08:36;41.67;;;18.70;;
62149;SDS011;48134;53.586;10.610;2024-03-08T06:11:04;40.47;;;18.77;;
62149;SDS011;48134;53.586;10.610;2024-03-08T06:13:34;46.58;;;19.40;;
62149;SDS011;48134;53.586;10.610;2024-03-08T06:16:07;43.40;;;18.90;;
62149;SDS011;48134;53.586;10.610;2024-03-08T06:18:41;44.57;;;20.20;;
62149;SDS011;48134;53.586;10.610;2024-03-08T06:21:14;42.25;;;19.17;;
62149;SDS011;48134;53.586;10.610;2024-03-08T06:23:48;44.05;;;19.52;;
62149;SDS011;48134;53.586;10.610;2024-03-08T06:26:21;43.17;;;19.10;;
62149;SDS011;48134;53.586;10.610;2024-03-08T06:28:56;40.15;;;18.77;;
62149;SDS011;48134;53.586;10.610;2024-03-08T06:31:29;44.53;;;19.23;;
62149;SDS011;48134;53.586;10.610;2024-03-08T06:34:03;43.72;;;18.92;;
62149;SDS011;48134;53.586;10.610;2024-03-08T06:36:39;43.22;;;18.70;;
62149;SDS011;48134;53.586;10.610;2024-03-08T06:39:12;43.63;;;18.80;;
62149;SDS011;48134;53.586;10.610;2024-03-08T06:41:40;43.47;;;18.95;;
62149;SDS011;48134;53.586;10.610;2024-03-08T06:44:12;43.28;;;19.73;;
62149;SDS011;48134;53.586;10.610;2024-03-08T06:46:45;39.65;;;18.88;;
62149;SDS011;48134;53.586;10.610;2024-03-08T06:49:19;46.92;;;19.60;;
62149;SDS011;48134;53.586;10.610;2024-03-08T06:51:53;41.22;;;18.55;;
62149;SDS011;48134;53.586;10.610;2024-03-08T06:54:21;42.72;;;19.15;;
62149;SDS011;48134;53.586;10.610;2024-03-08T06:56:54;37.10;;;17.80;;
62149;SDS011;48134;53.586;10.610;2024-03-08T06:59:29;39.88;;;19.05;;
62149;SDS011;48134;53.586;10.610;2024-03-08T07:01:58;40.33;;;18.55;;
62149;SDS011;48134;53.586;10.610;2024-03-08T07:04:32;40.42;;;18.08;;
62149;SDS011;48134;53.586;10.610;2024-03-08T07:07:00;37.10;;;18.33;;
62149;SDS011;48134;53.586;10.610;2024-03-08T07:09:34;41.33;;;19.95;;
62149;SDS011;48134;53.586;10.610;2024-03-08T07:12:07;42.33;;;20.13;;
62149;SDS011;48134;53.586;10.610;2024-03-08T07:14:38;41.05;;;18.88;;
62149;SDS011;48134;53.586;10.610;2024-03-08T07:17:07;42.22;;;18.48;;
62149;SDS011;48134;53.586;10.610;2024-03-08T07:19:41;40.90;;;18.80;;
62149;SDS011;48134;53.586;10.610;2024-03-08T07:22:09;39.50;;;18.48;;
62149;SDS011;48134;53.586;10.610;2024-03-08T07:24:38;41.38;;;19.27;;
62149;SDS011;48134;53.586;10.610;2024-03-08T07:27:23;40.20;;;19.02;;
62149;SDS011;48134;53.586;10.610;2024-03-08T07:29:52;38.53;;;18.83;;
62149;SDS011;48134;53.586;10.610;2024-03-08T07:32:27;42.08;;;18.98;;
62149;SDS011;48134;53.586;10.610;2024-03-08T07:35:01;42.88;;;19.58;;
62149;SDS011;48134;53.586;10.610;2024-03-08T07:37:30;43.22;;;19.35;;
62149;SDS011;48134;53.586;10.610;2024-03-08T07:40:04;40.33;;;19.02;;
62149;SDS011;48134;53.586;10.610;2024-03-08T07:42:39;43.40;;;19.40;;
62149;SDS011;48134;53.586;10.610;2024-03-08T07:45:14;42.40;;;19.73;;
62149;SDS011;48134;53.586;10.610;2024-03-08T07:47:48;45.53;;;20.92;;
62149;SDS011;48134;53.586;10.610;2024-03-08T07:50:17;42.80;;;20.00;;
62149;SDS011;48134;53.586;10.610;2024-03-08T07:52:51;43.75;;;19.27;;
62149;SDS011;48134;53.586;10.610;2024-03-08T07:55:19;45.20;;;20.98;;
62149;SDS011;48134;53.586;10.610;2024-03-08T07:57:50;45.95;;;21.13;;
62149;SDS011;48134;53.586;10.610;2024-03-08T08:00:20;47.60;;;20.70;;
62149;SDS011;48134;53.586;10.610;2024-03-08T08:02:49;46.13;;;21.15;;
62149;SDS011;48134;53.586;10.610;2024-03-08T08:05:17;46.72;;;20.65;;
62149;SDS011;48134;53.586;10.610;2024-03-08T08:07:45;44.75;;;20.90;;
62149;SDS011;48134;53.586;10.610;2024-03-08T08:10:19;47.30;;;20.70;;
62149;SDS011;48134;53.586;10.610;2024-03-08T08:12:54;45.95;;;21.10;;
62149;SDS011;48134;53.586;10.610;2024-03-08T08:15:30;44.42;;;20.52;;
62149;SDS011;48134;53.586;10.610;2024-03-08T08:18:05;47.23;;;20.90;;
62149;SDS011;48134;53.586;10.610;2024-03-08T08:20:38;51.40;;;21.20;;
62149;SDS011;48134;53.586;10.610;2024-03-08T08:23:06;43.88;;;20.83;;
62149;SDS011;48134;53.586;10.610;2024-03-08T08:25:35;44.25;;;21.02;;
62149;SDS011;48134;53.586;10.610;2024-03-08T08:28:09;45.45;;;21.95;;
62149;SDS011;48134;53.586;10.610;2024-03-08T08:30:40;46.90;;;20.37;;
62149;SDS011;48134;53.586;10.610;2024-03-08T08:33:14;44.60;;;20.50;;
62149;SDS011;48134;53.586;10.610;2024-03-08T08:35:42;45.67;;;21.17;;
62149;SDS011;48134;53.586;10.610;2024-03-08T08:38:15;45.40;;;20.77;;
62149;SDS011;48134;53.586;10.610;2024-03-08T08:40:49;44.10;;;20.85;;
62149;SDS011;48134;53.586;10.610;2024-03-08T08:43:22;45.07;;;20.57;;
62149;SDS011;48134;53.586;10.610;2024-03-08T08:45:53;45.30;;;20.65;;
62149;SDS011;48134;53.586;10.610;2024-03-08T08:48:27;44.60;;;20.80;;
62149;SDS011;48134;53.586;10.610;2024-03-08T08:51:01;43.63;;;20.80;;
62149;SDS011;48134;53.586;10.610;2024-03-08T08:53:34;43.95;;;20.67;;
62149;SDS011;48134;53.586;10.610;2024-03-08T08:56:08;39.53;;;19.58;;
62149;SDS011;48134;53.586;10.610;2024-03-08T08:58:44;40.28;;;19.58;;
62149;SDS011;48134;53.586;10.610;2024-03-08T09:01:14;42.58;;;19.05;;
62149;SDS011;48134;53.586;10.610;2024-03-08T09:03:50;35.60;;;18.73;;
62149;SDS011;48134;53.586;10.610;2024-03-08T09:06:23;40.65;;;19.63;;
62149;SDS011;48134;53.586;10.610;2024-03-08T09:08:57;37.92;;;19.23;;
62149;SDS011;48134;53.586;10.610;2024-03-08T09:11:30;38.05;;;19.05;;
62149;SDS011;48134;53.586;10.610;2024-03-08T09:13:59;36.20;;;18.50;;
62149;SDS011;48134;53.586;10.610;2024-03-08T09:16:35;38.15;;;18.45;;
62149;SDS011;48134;53.586;10.610;2024-03-08T09:19:08;39.95;;;20.27;;
62149;SDS011;48134;53.586;10.610;2024-03-08T09:21:42;43.13;;;19.65;;
62149;SDS011;48134;53.586;10.610;2024-03-08T09:24:15;37.03;;;18.73;;
62149;SDS011;48134;53.586;10.610;2024-03-08T09:26:49;37.90;;;17.70;;
62149;SDS011;48134;53.586;10.610;2024-03-08T09:29:22;35.70;;;17.55;;
62149;SDS011;48134;53.586;10.610;2024-03-08T09:31:52;36.08;;;18.50;;
62149;SDS011;48134;53.586;10.610;2024-03-08T09:34:20;38.78;;;18.92;;
62149;SDS011;48134;53.586;10.610;2024-03-08T09:36:49;35.40;;;16.77;;
62149;SDS011;48134;53.586;10.610;2024-03-08T09:39:17;34.53;;;17.65;;
62149;SDS011;48134;53.586;10.610;2024-03-08T09:41:48;35.45;;;17.60;;
62149;SDS011;48134;53.586;10.610;2024-03-08T09:44:22;36.93;;;18.27;;
62149;SDS011;48134;53.586;10.610;2024-03-08T09:46:53;36.75;;;18.23;;
62149;SDS011;48134;53.586;10.610;2024-03-08T09:49:27;33.22;;;17.55;;
62149;SDS011;48134;53.586;10.610;2024-03-08T09:52:00;34.25;;;17.80;;
62149;SDS011;48134;53.586;10.610;2024-03-08T09:54:36;35.47;;;17.60;;
62149;SDS011;48134;53.586;10.610;2024-03-08T09:57:05;33.92;;;17.65;;
62149;SDS011;48134;53.586;10.610;2024-03-08T09:59:40;34.45;;;17.48;;
62149;SDS011;48134;53.586;10.610;2024-03-08T10:02:21;32.42;;;17.92;;
62149;SDS011;48134;53.586;10.610;2024-03-08T10:04:54;33.97;;;17.90;;
62149;SDS011;48134;53.586;10.610;2024-03-08T10:07:25;33.97;;;17.40;;
62149;SDS011;48134;53.586;10.610;2024-03-08T10:09:53;34.53;;;17.55;;
62149;SDS011;48134;53.586;10.610;2024-03-08T10:12:21;32.17;;;17.35;;
62149;SDS011;48134;53.586;10.610;2024-03-08T10:14:55;31.83;;;16.70;;
62149;SDS011;48134;53.586;10.610;2024-03-08T10:17:29;31.70;;;16.07;;
62149;SDS011;48134;53.586;10.610;2024-03-08T10:20:04;31.55;;;17.45;;
62149;SDS011;48134;53.586;10.610;2024-03-08T10:22:47;29.95;;;16.63;;
62149;SDS011;48134;53.586;10.610;2024-03-08T10:25:16;32.83;;;15.88;;
62149;SDS011;48134;53.586;10.610;2024-03-08T10:27:49;32.17;;;16.35;;
62149;SDS011;48134;53.586;10.610;2024-03-08T10:30:17;30.98;;;16.05;;
62149;SDS011;48134;53.586;10.610;2024-03-08T10:32:53;30.13;;;16.33;;
62149;SDS011;48134;53.586;10.610;2024-03-08T10:35:27;29.00;;;15.20;;
62149;SDS011;48134;53.586;10.610;2024-03-08T10:38:00;26.67;;;14.60;;
62149;SDS011;48134;53.586;10.610;2024-03-08T10:40:34;29.45;;;14.48;;
62149;SDS011;48134;53.586;10.610;2024-03-08T10:43:03;29.42;;;14.80;;
62149;SDS011;48134;53.586;10.610;2024-03-08T10:45:37;27.55;;;14.93;;
62149;SDS011;48134;53.586;10.610;2024-03-08T10:48:20;29.57;;;16.23;;
62149;SDS011;48134;53.586;10.610;2024-03-08T10:51:03;27.98;;;15.00;;
62149;SDS011;48134;53.586;10.610;2024-03-08T10:53:39;32.00;;;16.13;;
62149;SDS011;48134;53.586;10.610;2024-03-08T10:56:13;31.58;;;15.23;;
62149;SDS011;48134;53.586;10.610;2024-03-08T10:58:47;29.70;;;15.55;;
62149;SDS011;48134;53.586;10.610;2024-03-08T11:01:21;29.97;;;15.37;;
62149;SDS011;48134;53.586;10.610;2024-03-08T11:03:57;27.83;;;14.43;;
62149;SDS011;48134;53.586;10.610;2024-03-08T11:06:29;29.65;;;15.73;;
62149;SDS011;48134;53.586;10.610;2024-03-08T11:08:58;29.05;;;15.50;;
62149;SDS011;48134;53.586;10.610;2024-03-08T11:11:27;30.77;;;15.80;;
62149;SDS011;48134;53.586;10.610;2024-03-08T11:14:03;30.98;;;16.50;;
62149;SDS011;48134;53.586;10.610;2024-03-08T11:16:38;30.85;;;15.60;;
62149;SDS011;48134;53.586;10.610;2024-03-08T11:19:26;32.08;;;15.60;;
62149;SDS011;48134;53.586;10.610;2024-03-08T11:21:58;28.60;;;15.70;;
62149;SDS011;48134;53.586;10.610;2024-03-08T11:24:36;29.70;;;16.00;;
62149;SDS011;48134;53.586;10.610;2024-03-08T11:27:13;29.38;;;15.73;;
62149;SDS011;48134;53.586;10.610;2024-03-08T11:29:43;32.13;;;14.93;;
62149;SDS011;48134;53.586;10.610;2024-03-08T11:32:11;29.07;;;15.93;;
62149;SDS011;48134;53.586;10.610;2024-03-08T11:34:48;31.48;;;15.90;;
62149;SDS011;48134;53.586;10.610;2024-03-08T11:37:18;29.27;;;15.32;;
62149;SDS011;48134;53.586;10.610;2024-03-08T11:39:53;28.65;;;15.52;;
62149;SDS011;48134;53.586;10.610;2024-03-08T11:42:30;30.50;;;15.68;;
62149;SDS011;48134;53.586;10.610;2024-03-08T11:44:58;29.10;;;15.10;;
62149;SDS011;48134;53.586;10.610;2024-03-08T11:47:27;30.75;;;16.10;;
62149;SDS011;48134;53.586;10.610;2024-03-08T11:50:00;30.27;;;15.32;;
62149;SDS011;48134;53.586;10.610;2024-03-08T11:52:35;27.95;;;14.90;;
62149;SDS011;48134;53.586;10.610;2024-03-08T11:55:08;27.00;;;13.95;;
62149;SDS011;48134;53.586;10.610;2024-03-08T11:57:44;26.90;;;13.88;;
62149;SDS011;48134;53.586;10.610;2024-03-08T12:00:18;26.27;;;14.07;;
62149;SDS011;48134;53.586;10.610;2024-03-08T12:03:01;27.38;;;14.35;;
62149;SDS011;48134;53.586;10.610;2024-03-08T12:05:31;26.35;;;14.70;;
62149;SDS011;48134;53.586;10.610;2024-03-08T12:08:01;26.42;;;14.52;;
62149;SDS011;48134;53.586;10.610;2024-03-08T12:10:37;29.70;;;14.77;;
62149;SDS011;48134;53.586;10.610;2024-03-08T12:13:06;26.38;;;13.82;;
62149;SDS011;48134;53.586;10.610;2024-03-08T12:15:44;26.23;;;14.35;;
62149;SDS011;48134;53.586;10.610;2024-03-08T12:18:18;28.13;;;14.52;;
62149;SDS011;48134;53.586;10.610;2024-03-08T12:20:54;24.52;;;13.55;;
62149;SDS011;48134;53.586;10.610;2024-03-08T12:23:39;25.73;;;13.90;;
62149;SDS011;48134;53.586;10.610;2024-03-08T12:26:12;27.27;;;13.32;;
62149;SDS011;48134;53.586;10.610;2024-03-08T12:28:47;24.73;;;13.55;;
62149;SDS011;48134;53.586;10.610;2024-03-08T12:31:16;26.67;;;13.67;;
62149;SDS011;48134;53.586;10.610;2024-03-08T12:33:52;25.63;;;13.77;;
62149;SDS011;48134;53.586;10.610;2024-03-08T12:36:29;26.08;;;13.77;;
62149;SDS011;48134;53.586;10.610;2024-03-08T12:38:58;25.73;;;13.35;;
62149;SDS011;48134;53.586;10.610;2024-03-08T12:41:38;23.65;;;13.52;;
62149;SDS011;48134;53.586;10.610;2024-03-08T12:44:12;25.55;;;13.77;;
62149;SDS011;48134;53.586;10.610;2024-03-08T12:46:45;27.70;;;14.13;;
62149;SDS011;48134;53.586;10.610;2024-03-08T12:49:19;28.17;;;13.70;;
62149;SDS011;48134;53.586;10.610;2024-03-08T12:51:50;27.53;;;14.13;;
62149;SDS011;48134;53.586;10.610;2024-03-08T12:54:24;25.55;;;13.70;;
62149;SDS011;48134;53.586;10.610;2024-03-08T12:56:52;27.95;;;13.90;;
62149;SDS011;48134;53.586;10.610;2024-03-08T12:59:26;26.93;;;14.27;;
62149;SDS011;48134;53.586;10.610;2024-03-08T13:01:54;26.73;;;14.00;;
62149;SDS011;48134;53.586;10.610;2024-03-08T13:04:30;26.45;;;13.88;;
62149;SDS011;48134;53.586;10.610;2024-03-08T13:07:05;28.05;;;14.10;;
62149;SDS011;48134;53.586;10.610;2024-03-08T13:09:38;25.05;;;12.85;;
62149;SDS011;48134;53.586;10.610;2024-03-08T13:12:12;27.33;;;13.73;;
62149;SDS011;48134;53.586;10.610;2024-03-08T13:14:45;26.23;;;14.45;;
62149;SDS011;48134;53.586;10.610;2024-03-08T13:17:19;27.20;;;14.23;;
62149;SDS011;48134;53.586;10.610;2024-03-08T13:19:49;24.05;;;12.82;;
62149;SDS011;48134;53.586;10.610;2024-03-08T13:22:24;24.23;;;12.85;;
62149;SDS011;48134;53.586;10.610;2024-03-08T13:24:57;25.52;;;13.15;;
62149;SDS011;48134;53.586;10.610;2024-03-08T13:27:27;27.98;;;13.45;;
62149;SDS011;48134;53.586;10.610;2024-03-08T13:30:01;23.67;;;13.20;;
62149;SDS011;48134;53.586;10.610;2024-03-08T13:32:34;24.80;;;13.10;;
62149;SDS011;48134;53.586;10.610;2024-03-08T13:35:08;25.73;;;13.25;;
62149;SDS011;48134;53.586;10.610;2024-03-08T13:37:45;27.43;;;13.00;;
62149;SDS011;48134;53.586;10.610;2024-03-08T13:40:19;24.43;;;12.80;;
62149;SDS011;48134;53.586;10.610;2024-03-08T13:42:52;25.27;;;13.07;;
62149;SDS011;48134;53.586;10.610;2024-03-08T13:45:26;25.73;;;13.23;;
62149;SDS011;48134;53.586;10.610;2024-03-08T13:47:59;23.40;;;12.77;;
62149;SDS011;48134;53.586;10.610;2024-03-08T13:50:32;23.45;;;12.82;;
62149;SDS011;48134;53.586;10.610;2024-03-08T13:53:08;24.02;;;12.18;;
62149;SDS011;48134;53.586;10.610;2024-03-08T13:55:42;23.90;;;11.95;;
62149;SDS011;48134;53.586;10.610;2024-03-08T13:58:15;22.40;;;12.15;;
62149;SDS011;48134;53.586;10.610;2024-03-08T14:00:48;23.25;;;12.52;;
62149;SDS011;48134;53.586;10.610;2024-03-08T14:03:23;21.60;;;11.65;;
62149;SDS011;48134;53.586;10.610;2024-03-08T14:05:56;21.63;;;11.38;;
62149;SDS011;48134;53.586;10.610;2024-03-08T14:08:26;21.42;;;11.10;;
62149;SDS011;48134;53.586;10.610;2024-03-08T14:10:55;22.77;;;11.80;;
62149;SDS011;48134;53.586;10.610;2024-03-08T14:13:29;23.45;;;11.20;;
62149;SDS011;48134;53.586;10.610;2024-03-08T14:16:02;22.92;;;11.13;;
62149;SDS011;48134;53.586;10.610;2024-03-08T14:18:36;21.97;;;11.80;;
62149;SDS011;48134;53.586;10.610;2024-03-08T14:21:09;21.38;;;11.32;;
62149;SDS011;48134;53.586;10.610;2024-03-08T14:23:44;21.63;;;11.65;;
62149;SDS011;48134;53.586;10.610;2024-03-08T14:26:15;22.57;;;11.30;;
62149;SDS011;48134;53.586;10.610;2024-03-08T14:28:48;21.20;;;11.10;;
62149;SDS011;48134;53.586;10.610;2024-03-08T14:31:23;20.65;;;11.52;;
62149;SDS011;48134;53.586;10.610;2024-03-08T14:33:57;21.50;;;11.82;;
62149;SDS011;48134;53.586;10.610;2024-03-08T14:36:31;22.48;;;11.50;;
62149;SDS011;48134;53.586;10.610;2024-03-08T14:39:05;26.50;;;14.03;;